Time;durP1;ratioP1;P1;durP2;ratioP2;P2;SDS_P1;SDS_P2;PMS_P1;PMS_P2;Temp;Humidity;BMP_temperature;BMP_pressure;BME280_temperature;BME280_humidity;BME280_pressure;Samples;Min_cycle;Max_cycle;Signal;HPM_P1;HPM_P2
2022/08/03 00:00:45;;;;;;;16.80;10.20;;;;;;;20.05;56.03;99522.53;6226874;22;20068;-70
2022/08/03 00:03:09;;;;;;;17.08;8.88;;;;;;;20.11;54.86;99524.50;6226009;22;20016;-69
2022/08/03 00:05:35;;;;;;;20.17;8.23;;;;;;;20.17;54.89;99526.56;6222036;22;20014;-70
2022/08/03 00:08:00;;;;;;;16.13;8.60;;;;;;;20.20;55.16;99528.06;6227984;22;20019;-71
2022/08/03 00:10:25;;;;;;;14.20;7.60;;;;;;;20.23;54.17;99528.53;6225428;22;20516;-70
2022/08/03 00:12:50;;;;;;;17.52;7.60;;;;;;;20.26;53.95;99522.78;6227013;22;20078;-71
2022/08/03 00:15:15;;;;;;;18.05;8.73;;;;;;;20.30;53.36;99523.28;6225700;22;20451;-70
2022/08/03 00:17:40;;;;;;;15.32;8.13;;;;;;;20.31;53.41;99517.69;6201209;22;20023;-72
2022/08/03 00:20:05;;;;;;;16.33;7.90;;;;;;;20.27;54.00;99524.47;6228246;22;20011;-67
2022/08/03 00:22:29;;;;;;;18.08;8.60;;;;;;;20.26;54.38;99528.22;6237955;22;20020;-66
2022/08/03 00:24:54;;;;;;;17.10;9.05;;;;;;;20.25;54.48;99528.38;6201066;22;20057;-70
2022/08/03 00:27:19;;;;;;;19.77;10.73;;;;;;;20.23;55.22;99533.13;6229159;22;20027;-69
2022/08/03 00:29:44;;;;;;;19.85;9.70;;;;;;;20.18;56.37;99530.94;6228034;22;20055;-67
2022/08/03 00:32:09;;;;;;;23.33;10.18;;;;;;;20.13;56.17;99533.31;6227931;22;20025;-65
2022/08/03 00:34:34;;;;;;;16.70;9.23;;;;;;;20.11;55.79;99534.50;6228232;22;20019;-71
2022/08/03 00:36:59;;;;;;;17.52;9.98;;;;;;;20.08;54.90;99521.34;6226020;22;20019;-71
2022/08/03 00:39:23;;;;;;;16.40;9.43;;;;;;;20.05;55.92;99524.38;6225987;22;20015;-72
2022/08/03 00:41:48;;;;;;;18.13;8.35;;;;;;;20.02;54.87;99520.16;6228496;22;20019;-70
2022/08/03 00:44:13;;;;;;;17.60;9.82;;;;;;;19.99;55.60;99523.19;6227113;22;20450;-70
2022/08/03 00:46:37;;;;;;;16.20;9.57;;;;;;;19.96;55.10;99515.44;6228840;22;20012;-69
2022/08/03 00:49:02;;;;;;;17.40;9.20;;;;;;;19.94;56.32;99521.03;6229035;22;20429;-69
2022/08/03 00:51:27;;;;;;;20.50;10.20;;;;;;;19.90;56.35;99516.97;6201332;22;20087;-74
2022/08/03 00:53:52;;;;;;;19.45;10.40;;;;;;;19.89;57.48;99520.69;6229209;22;20050;-73
2022/08/03 00:56:16;;;;;;;15.40;8.82;;;;;;;19.85;56.41;99522.06;6229011;22;20037;-73
2022/08/03 00:58:44;;;;;;;17.20;8.55;;;;;;;19.84;56.49;99519.53;6228808;22;20015;-74
2022/08/03 01:01:09;;;;;;;12.30;8.18;;;;;;;19.78;55.46;99518.34;6229484;22;20019;-73
2022/08/03 01:03:34;;;;;;;18.08;9.48;;;;;;;19.77;56.05;99508.53;6229875;22;20019;-70
2022/08/03 01:06:32;;;;;;;18.73;8.65;;;;;;;19.81;55.89;99512.59;6228813;22;20076;-74
2022/08/03 01:09:07;;;;;;;16.80;8.02;;;;;;;19.74;55.28;99514.31;6228627;22;20027;-75
2022/08/03 01:11:58;;;;;;;13.02;8.20;;;;;;;19.74;56.58;99511.59;6226996;22;20021;-71
2022/08/03 01:15:06;;;;;;;17.58;8.82;;;;;;;19.78;55.95;99512.91;6211000;22;20023;-70
2022/08/03 01:17:39;;;;;;;15.93;7.60;;;;;;;19.73;55.91;99514.47;6227554;22;20015;-74
2022/08/03 01:20:10;;;;;;;17.70;8.45;;;;;;;19.71;57.34;99511.94;6227268;22;20046;-72
2022/08/03 01:22:56;;;;;;;11.68;6.93;;;;;;;19.71;56.51;99521.91;6228940;22;20020;-74
2022/08/03 01:25:31;;;;;;;13.35;7.20;;;;;;;19.66;56.29;99508.88;6228760;22;20027;-75
2022/08/03 01:28:21;;;;;;;14.80;8.27;;;;;;;19.68;55.92;99519.53;6228795;22;20054;-73
2022/08/03 01:30:48;;;;;;;18.10;8.10;;;;;;;19.65;58.48;99509.03;6227356;22;20016;-72
2022/08/03 01:33:25;;;;;;;15.55;7.90;;;;;;;19.64;57.09;99512.78;6227812;22;20019;-74
2022/08/03 01:35:54;;;;;;;16.90;7.35;;;;;;;19.58;57.61;99512.44;6228565;22;20065;-73
2022/08/03 01:38:33;;;;;;;13.77;7.18;;;;;;;19.59;58.76;99524.09;6226927;22;20054;-73
2022/08/03 01:41:07;;;;;;;19.98;8.32;;;;;;;19.55;59.08;99515.47;6228635;22;20015;-66
2022/08/03 01:43:34;;;;;;;15.85;8.05;;;;;;;19.46;58.18;99521.88;6201432;22;20462;-67
2022/08/03 01:46:00;;;;;;;17.10;7.60;;;;;;;19.47;58.82;99522.72;6228703;22;20015;-62
2022/08/03 01:48:27;;;;;;;16.10;8.15;;;;;;;19.44;58.32;99518.50;6226892;22;20350;-62
2022/08/03 01:50:54;;;;;;;14.85;7.57;;;;;;;19.44;58.82;99526.59;6227481;22;20096;-63
2022/08/03 01:53:20;;;;;;;12.15;7.70;;;;;;;19.42;59.27;99523.22;6228332;22;20062;-63
2022/08/03 01:55:48;;;;;;;13.60;7.93;;;;;;;19.40;58.81;99522.56;6228451;22;20352;-62
2022/08/03 01:58:16;;;;;;;12.00;7.25;;;;;;;19.40;59.44;99521.72;6228814;22;20090;-62
2022/08/03 02:00:42;;;;;;;15.38;8.10;;;;;;;19.40;59.69;99527.13;6228632;22;20454;-62
2022/08/03 02:03:10;;;;;;;15.32;8.18;;;;;;;19.40;58.79;99530.69;6228395;22;20019;-62
2022/08/03 02:05:38;;;;;;;17.17;7.78;;;;;;;19.44;58.57;99526.59;6202149;22;20378;-63
2022/08/03 02:08:04;;;;;;;17.77;8.13;;;;;;;19.49;59.07;99528.84;6229092;22;20469;-66
2022/08/03 02:10:29;;;;;;;13.45;7.57;;;;;;;19.54;57.55;99535.44;6226289;22;20023;-62
2022/08/03 02:12:58;;;;;;;18.98;8.73;;;;;;;19.63;58.35;99536.28;6225989;22;20055;-63
2022/08/03 02:15:23;;;;;;;15.30;8.07;;;;;;;19.68;57.48;99530.34;6230714;22;20019;-63
2022/08/03 02:17:49;;;;;;;12.30;7.18;;;;;;;19.76;58.10;99533.88;6228521;22;20061;-64
2022/08/03 02:20:15;;;;;;;23.33;8.25;;;;;;;19.82;57.23;99535.91;6230248;22;20019;-63
2022/08/03 02:22:42;;;;;;;18.77;7.75;;;;;;;19.87;57.93;99538.94;6229154;22;20438;-68
2022/08/03 02:25:12;;;;;;;13.85;8.52;;;;;;;19.96;56.93;99533.53;6228560;22;20042;-64
2022/08/03 02:27:44;;;;;;;20.08;7.90;;;;;;;20.01;57.75;99540.09;6203383;22;20018;-64
2022/08/03 02:30:11;;;;;;;11.43;7.32;;;;;;;20.07;57.06;99536.72;6228514;22;20098;-63
2022/08/03 02:32:39;;;;;;;14.02;7.50;;;;;;;20.14;57.29;99542.28;6230006;22;20019;-67
2022/08/03 02:35:07;;;;;;;11.68;7.25;;;;;;;20.17;56.65;99545.50;6229249;22;20011;-72
2022/08/03 02:37:40;;;;;;;12.10;7.45;;;;;;;20.20;57.81;99547.03;6229014;22;20026;-72
2022/08/03 02:40:08;;;;;;;13.13;7.65;;;;;;;20.21;57.03;99544.09;6230583;22;20392;-70
2022/08/03 02:42:35;;;;;;;13.52;7.05;;;;;;;20.23;57.65;99552.06;6229122;22;20473;-70
2022/08/03 02:45:04;;;;;;;15.90;7.13;;;;;;;20.31;58.16;99552.06;6229043;22;20398;-69
2022/08/03 02:47:31;;;;;;;22.33;9.27;;;;;;;20.38;58.03;99546.81;6228511;22;20020;-69
2022/08/03 02:50:00;;;;;;;14.88;7.82;;;;;;;20.45;57.51;99545.94;6228744;22;20039;-68
2022/08/03 02:52:27;;;;;;;14.18;7.50;;;;;;;20.49;55.97;99547.28;6229711;22;20037;-69
2022/08/03 02:54:57;;;;;;;14.27;8.00;;;;;;;20.57;57.54;99543.69;6231000;22;20011;-70
2022/08/03 02:57:24;;;;;;;15.30;7.95;;;;;;;20.60;56.45;99544.19;6204010;22;20024;-71
2022/08/03 02:59:50;;;;;;;15.05;7.65;;;;;;;20.68;57.02;99548.72;6203315;22;20473;-69
2022/08/03 03:02:17;;;;;;;21.33;7.20;;;;;;;20.77;56.67;99546.84;6203880;22;20022;-70
2022/08/03 03:04:44;;;;;;;12.38;7.82;;;;;;;20.90;55.71;99555.19;6229571;22;20069;-70
2022/08/03 03:07:12;;;;;;;19.40;7.30;;;;;;;21.01;55.17;99554.78;6230528;22;20015;-68
2022/08/03 03:09:37;;;;;;;11.95;7.38;;;;;;;21.12;54.63;99545.41;6229058;22;20028;-71
2022/08/03 03:12:02;;;;;;;16.55;8.57;;;;;;;21.23;54.50;99554.00;6229092;22;20098;-68
2022/08/03 03:14:28;;;;;;;13.07;7.30;;;;;;;21.32;53.80;99555.66;6230912;22;20047;-68
2022/08/03 03:16:54;;;;;;;11.32;7.45;;;;;;;21.38;53.94;99563.06;6231931;22;20016;-68
2022/08/03 03:19:19;;;;;;;14.20;8.10;;;;;;;21.38;53.02;99557.63;6230939;22;20099;-71
2022/08/03 03:21:45;;;;;;;13.55;7.75;;;;;;;21.42;53.15;99558.13;6229326;22;20020;-71
2022/08/03 03:24:11;;;;;;;12.20;7.07;;;;;;;21.51;52.82;99558.91;6229902;22;20015;-71
2022/08/03 03:26:36;;;;;;;20.92;8.68;;;;;;;21.59;52.79;99553.41;6231147;22;20019;-72
2022/08/03 03:29:02;;;;;;;16.80;9.93;;;;;;;21.68;52.65;99561.28;6232665;22;20016;-70
2022/08/03 03:31:27;;;;;;;13.32;7.95;;;;;;;21.77;52.12;99556.66;6232453;22;20020;-71
2022/08/03 03:33:52;;;;;;;13.05;7.40;;;;;;;21.85;51.98;99569.31;6230597;22;20019;-70
2022/08/03 03:36:17;;;;;;;10.35;7.40;;;;;;;21.94;51.81;99569.03;6232445;22;20018;-70
2022/08/03 03:38:42;;;;;;;14.82;8.23;;;;;;;22.01;51.70;99567.28;6231065;22;20019;-72
2022/08/03 03:41:06;;;;;;;14.50;8.98;;;;;;;22.07;51.46;99568.44;6229840;22;20019;-71
2022/08/03 03:43:32;;;;;;;14.10;8.20;;;;;;;22.15;51.19;99571.06;6230596;22;20451;-72
2022/08/03 03:45:57;;;;;;;14.77;8.52;;;;;;;22.20;51.22;99574.06;6229190;22;20022;-71
2022/08/03 03:48:24;;;;;;;11.65;7.78;;;;;;;22.29;51.09;99566.69;6230362;22;20016;-72
2022/08/03 03:50:49;;;;;;;14.57;8.52;;;;;;;22.32;50.72;99569.88;6233415;22;20015;-72
2022/08/03 03:53:14;;;;;;;19.70;8.07;;;;;;;22.44;50.70;99572.97;6233189;22;20024;-72
2022/08/03 03:55:39;;;;;;;17.52;8.20;;;;;;;22.63;50.55;99585.13;6205534;22;20011;-71
2022/08/03 03:58:04;;;;;;;13.85;8.40;;;;;;;22.79;50.14;99574.94;6234203;22;20026;-72
2022/08/03 04:00:29;;;;;;;15.02;8.52;;;;;;;22.96;49.80;99575.56;6232519;22;20016;-70
2022/08/03 04:02:54;;;;;;;14.88;8.60;;;;;;;23.10;49.37;99576.56;6204505;22;20023;-73
2022/08/03 04:11:19;;;;;;;10.65;7.38;;;;;;;23.64;48.77;99574.22;6229827;22;20023;-73
2022/08/03 04:13:48;;;;;;;14.30;7.72;;;;;;;23.73;48.46;99588.53;6227789;22;20548;-74
2022/08/03 04:16:17;;;;;;;17.20;7.63;;;;;;;23.88;48.34;99582.00;6231094;22;20038;-71
2022/08/03 04:18:47;;;;;;;16.25;8.60;;;;;;;24.03;47.95;99592.81;6228274;22;20172;-70
2022/08/03 04:21:16;;;;;;;21.05;8.55;;;;;;;24.22;47.74;99583.97;6229381;22;20018;-70
2022/08/03 04:23:45;;;;;;;17.40;7.43;;;;;;;24.40;47.60;99591.59;6230122;22;20019;-71
2022/08/03 04:26:12;;;;;;;14.40;7.90;;;;;;;24.57;46.86;99589.44;6229116;22;20026;-70
2022/08/03 04:28:40;;;;;;;10.00;7.07;;;;;;;24.77;46.81;99592.25;6227657;22;20040;-71
2022/08/03 04:31:06;;;;;;;13.93;7.93;;;;;;;24.89;46.13;99591.47;6234694;22;20047;-70
2022/08/03 04:33:33;;;;;;;15.13;8.48;;;;;;;24.92;46.37;99590.22;6228958;22;20019;-71
2022/08/03 04:35:59;;;;;;;12.55;7.90;;;;;;;24.92;46.65;99585.66;6229613;22;20020;-71
2022/08/03 04:38:26;;;;;;;13.10;7.68;;;;;;;25.00;46.68;99592.81;6229804;22;20011;-71
2022/08/03 04:40:51;;;;;;;11.65;7.32;;;;;;;25.19;46.08;99585.72;6230789;22;20094;-71
2022/08/03 04:43:18;;;;;;;14.85;8.38;;;;;;;25.31;45.66;99590.38;6232173;22;20331;-72
2022/08/03 04:45:45;;;;;;;11.02;7.70;;;;;;;25.46;45.69;99579.31;6178381;22;20022;-70
2022/08/03 04:48:10;;;;;;;15.75;8.30;;;;;;;25.62;44.81;99589.03;6234956;22;20012;-71
2022/08/03 04:50:35;;;;;;;12.88;7.82;;;;;;;25.83;44.86;99582.53;6235658;22;20021;-69
2022/08/03 04:53:05;;;;;;;13.77;7.72;;;;;;;26.04;43.84;99587.78;6234875;22;20018;-69
2022/08/03 04:55:31;;;;;;;12.68;7.85;;;;;;;26.23;43.48;99586.09;6230742;22;20018;-69
2022/08/03 04:57:57;;;;;;;15.85;7.80;;;;;;;26.38;43.40;99579.38;6228627;22;20023;-68
2022/08/03 05:00:22;;;;;;;10.13;8.30;;;;;;;26.52;42.04;99587.56;6202356;22;20019;-68
2022/08/03 05:02:47;;;;;;;11.48;7.82;;;;;;;26.68;41.94;99590.66;6229365;22;20025;-68
2022/08/03 05:05:12;;;;;;;10.20;7.22;;;;;;;26.78;41.80;99587.47;6230376;22;20026;-69
2022/08/03 05:07:37;;;;;;;10.00;7.07;;;;;;;27.00;41.08;99585.31;6229597;22;20520;-69
2022/08/03 05:10:06;;;;;;;23.98;8.73;;;;;;;27.32;41.02;99581.56;6229718;22;20072;-69
2022/08/03 05:12:31;;;;;;;13.90;7.30;;;;;;;27.78;39.70;99584.03;6202216;22;20097;-70
2022/08/03 05:14:56;;;;;;;12.48;7.47;;;;;;;28.18;39.43;99589.22;6201873;22;20026;-69
2022/08/03 05:17:21;;;;;;;10.98;7.10;;;;;;;28.52;38.78;99585.94;6229172;22;20458;-69
2022/08/03 05:19:45;;;;;;;16.35;8.20;;;;;;;28.87;37.90;99588.94;6201780;22;20018;-69
2022/08/03 05:22:10;;;;;;;17.20;7.80;;;;;;;29.20;38.13;99594.00;6227216;22;20015;-69
2022/08/03 05:24:35;;;;;;;13.65;7.93;;;;;;;29.49;37.17;99595.09;6228973;22;20015;-69
2022/08/03 05:26:59;;;;;;;9.38;7.10;;;;;;;29.78;36.96;99593.44;6229383;22;20019;-67
2022/08/03 05:29:24;;;;;;;13.30;7.90;;;;;;;29.98;35.97;99600.53;6229195;22;20015;-68
2022/08/03 05:31:49;;;;;;;11.80;7.88;;;;;;;30.17;35.48;99594.69;6227578;22;20020;-68
2022/08/03 05:34:14;;;;;;;10.13;7.43;;;;;;;30.41;34.68;99598.28;6228968;22;20355;-69
2022/08/03 05:36:38;;;;;;;10.38;7.50;;;;;;;30.71;34.31;99594.59;6227892;22;20016;-68
2022/08/03 05:39:03;;;;;;;13.68;7.78;;;;;;;30.99;34.00;99602.91;6227750;22;20090;-69
2022/08/03 05:41:28;;;;;;;10.35;7.00;;;;;;;31.30;33.35;99604.41;6201650;22;20019;-68
2022/08/03 05:43:54;;;;;;;10.75;7.53;;;;;;;31.54;32.68;99600.47;6227225;22;20016;-69
2022/08/03 05:46:19;;;;;;;10.15;7.63;;;;;;;31.87;32.19;99610.75;6227110;22;20081;-69
2022/08/03 05:48:44;;;;;;;11.63;7.40;;;;;;;32.10;31.71;99588.53;6203203;22;20346;-69
2022/08/03 05:51:12;;;;;;;8.57;7.53;;;;;;;32.34;31.15;99602.19;6231245;22;20400;-69
2022/08/03 05:53:37;;;;;;;14.50;7.53;;;;;;;32.29;30.59;99604.84;6230260;22;20026;-72
2022/08/03 05:56:03;;;;;;;11.60;6.78;;;;;;;32.05;30.61;99602.25;6229077;22;20016;-72
2022/08/03 05:58:28;;;;;;;11.90;6.75;;;;;;;32.11;31.06;99606.75;6230587;22;20082;-73
2022/08/03 06:00:52;;;;;;;12.40;6.43;;;;;;;32.46;30.61;99598.25;6230841;22;20019;-71
2022/08/03 06:03:17;;;;;;;14.52;6.78;;;;;;;32.89;29.84;99601.34;6228786;22;20036;-70
2022/08/03 06:05:42;;;;;;;16.83;7.40;;;;;;;33.31;28.55;99604.38;6203692;22;20027;-69
2022/08/03 06:08:06;;;;;;;13.40;7.72;;;;;;;33.77;28.32;99648.03;6230858;22;20023;-71
2022/08/03 06:10:32;;;;;;;11.20;7.45;;;;;;;34.12;27.19;99661.38;6228326;22;20357;-70
2022/08/03 06:12:56;;;;;;;9.45;6.78;;;;;;;34.39;26.31;99666.91;6230770;22;20020;-70
2022/08/03 06:15:21;;;;;;;13.77;7.38;;;;;;;34.79;26.52;99665.56;6228997;22;20088;-70
2022/08/03 06:17:50;;;;;;;13.23;7.68;;;;;;;35.20;25.64;99672.19;6233223;22;20046;-69
2022/08/03 06:20:17;;;;;;;11.88;7.90;;;;;;;35.61;25.72;99674.03;6229388;22;20011;-70
2022/08/03 06:22:42;;;;;;;13.10;7.80;;;;;;;36.16;24.33;99664.16;6229298;22;20016;-70
2022/08/03 06:25:07;;;;;;;11.70;7.63;;;;;;;35.96;23.80;99612.25;6231157;22;20021;-70
2022/08/03 06:27:32;;;;;;;10.95;7.22;;;;;;;36.01;24.62;99605.84;6231749;22;20022;-71
2022/08/03 06:29:57;;;;;;;9.60;6.32;;;;;;;35.93;24.80;99609.19;6205696;22;20020;-70
2022/08/03 06:32:21;;;;;;;11.65;7.07;;;;;;;35.83;24.92;99612.78;6206373;22;20405;-69
2022/08/03 06:34:46;;;;;;;10.07;7.35;;;;;;;35.93;24.88;99610.03;6204697;22;20015;-70
2022/08/03 06:37:11;;;;;;;17.10;6.97;;;;;;;36.18;24.01;99616.69;6228896;22;20019;-70
2022/08/03 06:39:36;;;;;;;13.88;7.55;;;;;;;36.41;23.56;99615.31;6231041;22;20094;-70
2022/08/03 06:42:00;;;;;;;11.32;7.30;;;;;;;36.85;22.97;99615.53;6230605;22;20016;-69
2022/08/03 06:44:25;;;;;;;14.13;6.85;;;;;;;37.24;22.26;99624.06;6230331;22;20022;-70
2022/08/03 06:46:50;;;;;;;10.15;6.90;;;;;;;37.51;21.60;99677.31;6203197;22;20043;-72
2022/08/03 06:49:15;;;;;;;10.77;6.13;;;;;;;37.69;21.38;99678.66;6229306;22;20015;-70
2022/08/03 06:51:40;;;;;;;13.05;6.00;;;;;;;36.76;20.79;99672.81;6230345;22;20081;-70
2022/08/03 06:54:04;;;;;;;10.43;6.88;;;;;;;36.82;22.28;99610.53;6230158;22;20454;-70
2022/08/03 06:56:29;;;;;;;9.45;6.38;;;;;;;37.34;21.65;99612.88;6230469;22;20016;-71
2022/08/03 06:58:54;;;;;;;10.55;6.28;;;;;;;38.06;20.84;99675.31;6229196;22;20022;-70
2022/08/03 07:01:19;;;;;;;12.98;7.00;;;;;;;38.58;19.90;99612.56;6228418;22;20026;-70
2022/08/03 07:03:43;;;;;;;7.68;6.60;;;;;;;38.76;19.98;99614.59;6230205;22;20466;-71
2022/08/03 07:06:09;;;;;;;7.97;7.10;;;;;;;39.10;19.45;99617.28;6228298;22;20074;-69
2022/08/03 07:08:33;;;;;;;14.95;6.57;;;;;;;39.09;19.08;99613.66;6202816;22;20091;-70
2022/08/03 07:10:59;;;;;;;10.15;6.72;;;;;;;38.64;19.19;99619.72;6202723;22;20020;-71
2022/08/03 07:13:24;;;;;;;6.95;6.25;;;;;;;38.18;18.98;99617.34;6229906;22;20030;-70
2022/08/03 07:15:48;;;;;;;7.65;5.47;;;;;;;37.49;20.03;99618.34;6228439;22;20012;-69
2022/08/03 07:18:13;;;;;;;10.15;6.07;;;;;;;36.51;20.23;99612.53;6202628;22;20082;-69
2022/08/03 07:20:38;;;;;;;8.18;6.55;;;;;;;35.67;21.38;99617.44;6229745;22;20016;-69
2022/08/03 07:23:02;;;;;;;9.57;6.38;;;;;;;35.41;22.22;99620.44;6228249;22;20019;-68
2022/08/03 07:25:27;;;;;;;9.60;6.90;;;;;;;35.97;21.61;99615.88;6229780;22;20016;-67
2022/08/03 07:27:52;;;;;;;7.65;5.93;;;;;;;35.87;21.84;99621.41;6229903;22;20020;-70
2022/08/03 07:30:17;;;;;;;8.38;5.93;;;;;;;35.78;21.71;99609.19;6228267;22;20019;-69
2022/08/03 07:32:42;;;;;;;11.65;5.70;;;;;;;35.48;22.43;99609.91;6230339;22;20065;-70
2022/08/03 07:35:09;;;;;;;9.07;6.55;;;;;;;35.64;22.12;99626.34;6227960;22;20011;-68
2022/08/03 07:37:34;;;;;;;6.78;5.30;;;;;;;35.74;21.82;99619.16;6230640;22;20023;-70
2022/08/03 07:40:00;;;;;;;8.55;6.18;;;;;;;35.63;22.17;99616.34;6228973;22;20114;-70
2022/08/03 07:42:27;;;;;;;8.10;6.50;;;;;;;35.43;22.74;99626.56;6230249;22;20553;-70
2022/08/03 07:44:51;;;;;;;7.93;5.90;;;;;;;35.38;20.96;99613.50;6178961;22;20018;-70
2022/08/03 07:47:21;;;;;;;6.22;5.63;;;;;;;34.79;22.89;99624.84;6232698;22;20015;-70
2022/08/03 07:49:46;;;;;;;10.13;5.75;;;;;;;33.98;23.56;99615.88;6205149;22;20031;-70
2022/08/03 07:54:54;;;;;;;10.15;7.03;;;;;;;33.27;24.27;99625.34;6231710;22;20020;-70
2022/08/03 07:57:19;;;;;;;7.22;5.32;;;;;;;33.79;23.64;99622.91;6231826;22;20047;-69
2022/08/03 07:59:46;;;;;;;6.90;5.78;;;;;;;33.72;23.87;99634.16;6232872;22;20023;-70
2022/08/03 08:02:10;;;;;;;6.35;5.65;;;;;;;33.20;24.52;99631.00;6206857;22;20565;-71
2022/08/03 08:04:35;;;;;;;9.77;6.22;;;;;;;32.61;24.95;99629.91;6233271;22;20477;-71
2022/08/03 08:07:00;;;;;;;13.68;6.38;;;;;;;31.98;25.80;99629.16;6209775;22;20022;-70
2022/08/03 08:09:25;;;;;;;9.38;6.22;;;;;;;32.41;25.07;99624.91;6208938;22;20026;-71
2022/08/03 08:11:49;;;;;;;8.32;5.93;;;;;;;32.72;24.51;99632.63;6231884;22;20016;-71
2022/08/03 08:14:14;;;;;;;7.82;5.50;;;;;;;32.98;24.44;99625.50;6241355;22;20011;-70
2022/08/03 08:16:39;;;;;;;7.55;5.78;;;;;;;34.57;22.82;99636.03;6203426;22;20094;-71
2022/08/03 08:19:04;;;;;;;6.63;5.65;;;;;;;35.07;22.25;99631.09;6228171;22;20031;-70
2022/08/03 08:21:29;;;;;;;7.00;6.38;;;;;;;35.03;22.59;99629.94;6228815;22;20346;-69
2022/08/03 08:23:54;;;;;;;9.15;5.93;;;;;;;34.51;22.90;99633.50;6230661;22;20398;-71
2022/08/03 08:26:19;;;;;;;9.68;6.80;;;;;;;33.85;23.60;99628.22;6229445;22;20019;-71
2022/08/03 08:28:44;;;;;;;7.57;5.07;;;;;;;33.27;24.28;99623.41;6230295;22;20019;-68
2022/08/03 08:31:09;;;;;;;7.57;5.90;;;;;;;32.76;25.19;99624.63;6203645;22;20016;-70
2022/08/03 08:33:34;;;;;;;10.85;6.15;;;;;;;32.27;26.09;99629.13;6230555;22;20022;-70
2022/08/03 08:35:59;;;;;;;9.88;5.72;;;;;;;32.07;26.47;99633.16;6227849;22;20308;-71
2022/08/03 08:38:25;;;;;;;10.32;6.05;;;;;;;31.83;27.21;99631.63;6229616;22;20041;-69
2022/08/03 08:40:50;;;;;;;9.18;5.97;;;;;;;31.72;27.79;99635.28;6229195;22;20492;-71
2022/08/03 08:43:14;;;;;;;8.20;5.88;;;;;;;31.47;28.12;99621.00;6201650;22;20525;-71
2022/08/03 08:45:40;;;;;;;9.65;6.53;;;;;;;31.23;28.88;99631.28;6228882;22;20070;-72
2022/08/03 08:48:06;;;;;;;10.27;7.20;;;;;;;31.68;28.29;99628.59;6202972;22;20018;-71
2022/08/03 08:50:32;;;;;;;8.60;6.03;;;;;;;32.99;26.59;99632.69;6203539;22;20018;-73
2022/08/03 08:53:00;;;;;;;7.18;6.40;;;;;;;35.23;24.16;99639.19;6202245;22;20015;-73
2022/08/03 08:55:25;;;;;;;10.70;6.43;;;;;;;37.02;22.10;99644.66;6228223;22;20011;-72
2022/08/03 08:57:58;;;;;;;12.63;7.95;;;;;;;38.20;21.08;99644.91;6202304;22;20022;-73
2022/08/03 09:00:22;;;;;;;6.60;5.57;;;;;;;38.46;20.11;99640.78;6229717;22;20093;-74
2022/08/03 09:02:47;;;;;;;8.88;5.70;;;;;;;37.02;20.63;99633.53;6230923;22;20011;-73
2022/08/03 09:05:15;;;;;;;7.47;6.15;;;;;;;35.75;22.65;99646.63;6207577;22;20018;-73
2022/08/03 09:07:41;;;;;;;11.68;6.18;;;;;;;34.87;23.05;99638.22;6230796;22;20531;-73
2022/08/03 09:10:07;;;;;;;11.10;6.65;;;;;;;34.36;23.44;99639.75;6231843;22;20050;-73
2022/08/03 09:12:41;;;;;;;9.23;6.30;;;;;;;33.66;24.57;99635.19;6203097;22;20339;-73
2022/08/03 09:15:21;;;;;;;;;;;;;;;34.37;23.99;99637.81;6233074;22;20093;-73
2022/08/03 09:17:47;;;;;;;10.73;6.55;;;;;;;35.91;22.01;99636.38;6242283;22;19911;-73
2022/08/03 09:20:12;;;;;;;7.43;6.68;;;;;;;38.02;20.82;99630.56;6229419;22;20038;-75
2022/08/03 09:23:16;;;;;;;9.93;7.32;;;;;;;40.31;18.92;99653.81;6234820;22;20015;-74
2022/08/03 09:25:42;;;;;;;8.70;7.80;;;;;;;40.55;17.89;99653.69;6139032;23;20021;-69
2022/08/03 09:28:10;;;;;;;8.90;7.00;;;;;;;41.53;17.25;99654.31;6139361;23;20024;-68
2022/08/03 09:30:43;;;;;;;8.55;7.68;;;;;;;42.86;16.11;99661.19;6089865;23;20017;-69
2022/08/03 09:33:12;;;;;;;;;;;;;;;43.43;16.14;99657.28;6091592;23;20064;-70
2022/08/03 09:35:45;;;;;;;10.15;9.15;;;;;;;43.34;15.40;99666.84;6133990;23;19912;-69
2022/08/03 09:38:26;;;;;;;9.23;8.40;;;;;;;43.19;15.74;99658.88;6093344;23;20020;-70
2022/08/03 09:40:51;;;;;;;14.70;9.07;;;;;;;43.68;14.92;99649.28;6118239;23;20021;-69
2022/08/03 09:43:16;;;;;;;10.93;9.93;;;;;;;44.71;14.81;99654.00;6117673;23;20079;-68
2022/08/03 09:45:42;;;;;;;11.98;10.88;;;;;;;44.67;14.01;99655.84;6143220;23;20025;-69
2022/08/03 09:48:30;;;;;;;11.95;10.75;;;;;;;44.53;14.62;99656.03;6143685;23;20020;-71
2022/08/03 09:51:00;;;;;;;11.32;10.10;;;;;;;42.93;15.24;99647.50;6118502;23;20537;-69
2022/08/03 09:53:25;;;;;;;9.88;8.88;;;;;;;43.15;15.43;99627.78;6121759;23;20359;-69
2022/08/03 09:55:50;;;;;;;10.60;9.60;;;;;;;43.92;14.80;99635.53;6141230;22;20454;-69
2022/08/03 09:58:15;;;;;;;10.27;8.52;;;;;;;43.05;15.54;99636.50;6234668;22;20016;-73
2022/08/03 10:01:06;;;;;;;10.48;9.07;;;;;;;42.62;15.71;99636.28;6233249;22;20462;-73
2022/08/03 10:03:36;;;;;;;11.73;8.02;;;;;;;40.00;17.49;99645.09;6228337;22;20019;-72
2022/08/03 10:06:18;;;;;;;9.00;8.10;;;;;;;39.76;18.49;99644.31;6231090;22;20022;-72
2022/08/03 10:08:43;;;;;;;10.25;7.85;;;;;;;41.17;17.64;99637.44;6231170;22;20083;-72
2022/08/03 10:11:08;;;;;;;12.18;8.88;;;;;;;43.21;15.09;99640.56;6229447;22;20038;-72
2022/08/03 10:13:33;;;;;;;13.18;9.68;;;;;;;44.33;14.72;99645.47;6203463;22;20018;-73
2022/08/03 10:15:58;;;;;;;9.75;8.38;;;;;;;43.92;14.75;99652.41;6231761;22;20436;-69
2022/08/03 10:18:22;;;;;;;13.60;8.90;;;;;;;41.83;16.12;99636.81;6205880;22;20488;-69
2022/08/03 10:20:52;;;;;;;9.02;8.13;;;;;;;39.56;17.93;99640.69;6229318;22;20022;-70
2022/08/03 10:23:17;;;;;;;8.13;6.97;;;;;;;37.56;19.80;99637.50;6229046;22;20046;-72
2022/08/03 10:25:47;;;;;;;8.90;8.00;;;;;;;37.19;20.23;99637.97;6203657;22;20070;-74
2022/08/03 10:28:15;;;;;;;10.07;7.30;;;;;;;37.29;20.80;99637.91;6229440;22;20077;-73
2022/08/03 10:30:46;;;;;;;8.82;7.00;;;;;;;37.29;20.20;99643.47;6229656;22;20023;-70
2022/08/03 10:33:19;;;;;;;7.38;6.68;;;;;;;36.22;21.07;99643.66;6203597;22;20023;-72
2022/08/03 10:35:47;;;;;;;9.30;6.57;;;;;;;34.92;23.02;99641.00;6230916;22;20482;-74
2022/08/03 10:38:18;;;;;;;11.50;6.85;;;;;;;34.27;23.36;99623.91;6229518;22;20042;-71
2022/08/03 10:40:43;;;;;;;11.77;7.03;;;;;;;33.34;24.43;99639.78;6203252;22;20016;-72
2022/08/03 10:43:20;;;;;;;7.85;6.68;;;;;;;32.50;25.11;99637.22;6228656;22;20350;-70
2022/08/03 10:45:45;;;;;;;9.38;6.32;;;;;;;31.77;26.86;99649.16;6227980;22;20015;-73
2022/08/03 10:48:11;;;;;;;9.93;7.18;;;;;;;31.53;26.61;99636.53;6227224;22;20106;-74
2022/08/03 10:50:36;;;;;;;7.82;6.20;;;;;;;31.34;27.55;99639.50;6228604;22;20084;-74
2022/08/03 10:53:06;;;;;;;8.50;6.03;;;;;;;31.15;27.58;99634.41;6202925;22;20027;-74
2022/08/03 10:58:42;;;;;;;12.15;6.47;;;;;;;30.68;28.24;99637.22;6232956;22;20019;-73
2022/08/03 11:01:09;;;;;;;11.45;6.20;;;;;;;30.35;29.93;99640.53;6211306;22;20031;-74
2022/08/03 11:03:53;;;;;;;7.60;6.00;;;;;;;30.42;28.84;99641.22;6235919;22;20107;-73
2022/08/03 11:06:25;;;;;;;9.73;6.38;;;;;;;30.35;29.12;99639.69;6236065;22;20039;-70
2022/08/03 11:09:09;;;;;;;12.07;7.07;;;;;;;30.44;28.64;99633.59;6230546;22;20023;-72
2022/08/03 11:11:34;;;;;;;8.98;7.47;;;;;;;30.27;30.12;99633.44;6241833;22;20031;-71
2022/08/03 11:14:07;;;;;;;9.75;6.40;;;;;;;30.28;30.24;99628.78;6230209;22;20073;-74
2022/08/03 11:16:36;;;;;;;7.47;6.65;;;;;;;30.40;29.50;99632.38;6204670;22;20091;-71
2022/08/03 11:19:04;;;;;;;12.32;6.55;;;;;;;30.28;29.31;99642.53;6230728;22;20358;-71
2022/08/03 11:21:52;;;;;;;9.38;6.35;;;;;;;30.21;29.14;99639.06;6183285;22;20027;-71
2022/08/03 11:24:35;;;;;;;9.95;6.68;;;;;;;29.97;29.90;99638.19;6184607;22;20015;-72
2022/08/03 11:27:23;;;;;;;10.05;6.30;;;;;;;29.92;29.59;99641.59;6202804;22;20020;-71
2022/08/03 11:30:06;;;;;;;8.38;6.22;;;;;;;29.99;29.32;99643.44;6204451;22;20011;-73
2022/08/03 11:32:40;;;;;;;9.55;6.50;;;;;;;29.83;29.63;99643.00;6202419;22;20106;-71
2022/08/03 11:35:12;;;;;;;;;;;;;;;29.91;29.00;99631.66;6229547;22;20058;-71
2022/08/03 11:37:59;;;;;;;12.32;6.50;;;;;;;29.83;29.88;99632.00;6239976;22;19911;-70
2022/08/03 11:40:46;;;;;;;10.55;6.35;;;;;;;29.68;29.78;99636.28;6188698;22;20078;-69